createdAt,value
2023-05-22T00:00:10.131Z,18.99
2023-05-22T00:01:21.496Z,18.99
2023-05-22T00:02:29.570Z,18.99
2023-05-22T00:03:36.799Z,18.97
2023-05-22T00:04:43.765Z,18.96
2023-05-22T00:05:48.662Z,18.94
2023-05-22T00:06:54.460Z,18.93
2023-05-22T00:08:00.078Z,18.89
2023-05-22T00:09:04.299Z,18.88
2023-05-22T00:10:09.624Z,18.89
2023-05-22T00:11:13.826Z,18.87
2023-05-22T00:12:19.517Z,18.83
2023-05-22T00:13:22.871Z,18.83
2023-05-22T00:14:27.160Z,18.79
2023-05-22T00:15:31.120Z,18.78
2023-05-22T00:16:37.292Z,18.77
2023-05-22T00:19:05.195Z,18.71
2023-05-22T00:20:13.175Z,18.68
2023-05-22T00:21:20.473Z,18.67
2023-05-22T00:22:23.780Z,18.61
2023-05-22T00:23:30.733Z,18.59
2023-05-22T00:24:34.420Z,18.56
2023-05-22T00:25:39.569Z,18.54
2023-05-22T00:26:43.919Z,18.54
2023-05-22T00:27:50.042Z,18.53
2023-05-22T00:28:54.560Z,18.48
2023-05-22T00:30:00.974Z,18.47
2023-05-22T00:31:06.353Z,18.45
2023-05-22T00:32:12.440Z,18.42
2023-05-22T00:33:16.494Z,18.40
2023-05-22T00:34:22.635Z,18.35
2023-05-22T00:35:27.449Z,18.32
2023-05-22T00:36:33.646Z,18.28
2023-05-22T00:37:37.861Z,18.23
2023-05-22T00:38:41.555Z,18.23
2023-05-22T00:39:45.851Z,18.22
2023-05-22T00:40:49.864Z,18.21
2023-05-22T00:41:53.514Z,18.20
2023-05-22T00:42:59.283Z,18.22
2023-05-22T00:44:03.067Z,18.23
2023-05-22T00:45:09.690Z,18.23
2023-05-22T00:46:13.875Z,18.21
2023-05-22T00:47:17.940Z,18.20
2023-05-22T00:48:21.912Z,18.18
2023-05-22T00:49:27.869Z,18.17
2023-05-22T00:50:33.864Z,18.18
2023-05-22T00:51:37.665Z,18.17
2023-05-22T00:52:45.854Z,18.13
2023-05-22T00:53:49.536Z,18.13
2023-05-22T00:54:56.520Z,18.09
2023-05-22T00:56:00.396Z,18.09
2023-05-22T00:57:06.260Z,18.08
2023-05-22T00:58:11.986Z,18.05
2023-05-22T00:59:16.897Z,18.04
2023-05-22T01:00:21.089Z,18.01
2023-05-22T01:01:26.847Z,18.00
2023-05-22T01:02:33.193Z,17.99
2023-05-22T01:03:45.667Z,17.99
2023-05-22T01:04:50.441Z,17.99
2023-05-22T01:05:58.508Z,17.98
2023-05-22T01:07:03.332Z,17.99
2023-05-22T01:08:10.154Z,17.97
2023-05-22T01:09:14.879Z,17.92
2023-05-22T01:10:19.497Z,17.91
2023-05-22T01:11:28.718Z,17.90
2023-05-22T01:12:40.268Z,17.87
2023-05-22T01:13:53.430Z,17.84
2023-05-22T01:15:06.914Z,17.80
2023-05-22T01:16:20.056Z,17.79
2023-05-22T01:17:36.200Z,17.77
2023-05-22T01:18:46.238Z,17.75
2023-05-22T01:20:08.252Z,17.72
2023-05-22T01:21:23.105Z,17.68
2023-05-22T01:22:36.850Z,17.64
2023-05-22T01:24:02.926Z,17.64
2023-05-22T01:25:31.393Z,17.59
2023-05-22T01:27:05.656Z,17.54
2023-05-22T01:28:22.509Z,17.48
2023-05-22T01:29:43.360Z,17.47
2023-05-22T01:30:55.361Z,17.45
2023-05-22T01:32:02.578Z,17.43
2023-05-22T01:33:08.287Z,17.43
2023-05-22T01:34:14.902Z,17.45
2023-05-22T01:35:19.035Z,17.46
2023-05-22T01:36:26.316Z,17.48
2023-05-22T01:37:32.244Z,17.49
2023-05-22T01:38:37.157Z,17.55
2023-05-22T01:39:42.804Z,17.58
2023-05-22T01:40:48.962Z,17.59
2023-05-22T01:41:53.773Z,17.57
2023-05-22T01:42:58.070Z,17.57
2023-05-22T01:44:02.848Z,17.59
2023-05-22T01:45:10.238Z,17.60
2023-05-22T01:46:16.908Z,17.60
2023-05-22T01:47:22.939Z,17.61
2023-05-22T01:48:26.740Z,17.65
2023-05-22T01:49:32.908Z,17.67
2023-05-22T01:50:36.490Z,17.71
2023-05-22T01:51:53.955Z,17.74
2023-05-22T01:53:05.160Z,17.74
2023-05-22T01:54:25.254Z,17.76
2023-05-22T01:55:37.585Z,17.76
2023-05-22T01:56:47.171Z,17.77
2023-05-22T01:58:04.925Z,17.79
2023-05-22T01:59:16.802Z,17.80
2023-05-22T02:00:23.858Z,17.79
2023-05-22T02:01:32.691Z,17.80
2023-05-22T02:02:39.848Z,17.79
2023-05-22T02:03:44.433Z,17.80
2023-05-22T02:04:57.499Z,17.81
2023-05-22T02:06:06.074Z,17.82
2023-05-22T02:07:13.645Z,17.82
2023-05-22T02:08:18.508Z,17.81
2023-05-22T02:09:26.022Z,17.82
2023-05-22T02:10:30.869Z,17.78
2023-05-22T02:11:38.068Z,17.78
2023-05-22T02:12:42.783Z,17.73
2023-05-22T02:13:46.488Z,17.72
2023-05-22T02:14:51.580Z,17.71
2023-05-22T02:15:58.376Z,17.71
2023-05-22T02:17:03.787Z,17.71
2023-05-22T02:18:13.621Z,17.71
2023-05-22T02:19:18.758Z,17.69
2023-05-22T02:20:22.112Z,17.71
2023-05-22T02:21:27.112Z,17.70
2023-05-22T02:22:30.761Z,17.71
2023-05-22T02:23:44.084Z,17.73
2023-05-22T02:24:51.009Z,17.73
2023-05-22T02:25:55.620Z,17.72
2023-05-22T02:27:00.274Z,17.73
2023-05-22T02:28:05.121Z,17.72
2023-05-22T02:29:10.285Z,17.70
2023-05-22T02:30:15.688Z,17.70
2023-05-22T02:31:19.979Z,17.67
2023-05-22T02:32:25.815Z,17.65
2023-05-22T02:33:30.079Z,17.63
2023-05-22T02:34:33.842Z,17.60
2023-05-22T02:35:44.348Z,17.57
2023-05-22T02:36:51.511Z,17.56
2023-05-22T02:37:56.995Z,17.56
2023-05-22T02:39:01.888Z,17.57
2023-05-22T02:40:11.199Z,17.55
2023-05-22T02:41:15.274Z,17.52
2023-05-22T02:42:19.742Z,17.49
2023-05-22T02:43:23.942Z,17.48
2023-05-22T02:44:28.333Z,17.46
2023-05-22T02:45:33.399Z,17.44
2023-05-22T02:46:37.906Z,17.44
2023-05-22T02:47:42.914Z,17.42
2023-05-22T02:48:48.359Z,17.38
2023-05-22T02:49:52.014Z,17.35
2023-05-22T02:50:56.502Z,17.34
2023-05-22T02:52:00.177Z,17.33
2023-05-22T02:53:07.510Z,17.30
2023-05-22T02:54:11.702Z,17.29
2023-05-22T02:55:18.441Z,17.28
2023-05-22T02:56:22.172Z,17.24
2023-05-22T02:57:27.447Z,17.24
2023-05-22T02:58:32.111Z,17.19
2023-05-22T02:59:37.780Z,17.19
2023-05-22T03:00:46.954Z,17.18
2023-05-22T03:01:55.746Z,17.19
2023-05-22T03:03:02.742Z,17.16
2023-05-22T03:04:11.166Z,17.18
2023-05-22T03:05:18.635Z,17.13
2023-05-22T03:06:27.311Z,17.14
2023-05-22T03:07:37.064Z,17.15
2023-05-22T03:08:45.378Z,17.14
2023-05-22T03:09:49.646Z,17.15
2023-05-22T03:10:53.747Z,17.15
2023-05-22T03:11:58.442Z,17.14
2023-05-22T03:13:03.454Z,17.14
2023-05-22T03:14:07.032Z,17.15
2023-05-22T03:15:14.810Z,17.15
2023-05-22T03:16:18.127Z,17.15
2023-05-22T03:17:22.868Z,17.15
2023-05-22T03:18:27.640Z,17.15
2023-05-22T03:19:33.170Z,17.15
2023-05-22T03:20:36.676Z,17.15
2023-05-22T03:21:44.704Z,17.13
2023-05-22T03:22:48.152Z,17.14
2023-05-22T03:23:53.695Z,17.14
2023-05-22T03:24:58.711Z,17.15
2023-05-22T03:26:03.674Z,17.18
2023-05-22T03:27:07.697Z,17.16
2023-05-22T03:28:12.558Z,17.16
2023-05-22T03:29:16.857Z,17.16
2023-05-22T03:30:22.046Z,17.15
2023-05-22T03:31:25.831Z,17.14
2023-05-22T03:32:31.343Z,17.14
2023-05-22T03:33:37.575Z,17.14
2023-05-22T03:34:44.269Z,17.13
2023-05-22T03:35:47.856Z,17.15
2023-05-22T03:36:52.247Z,17.15
2023-05-22T03:37:54.950Z,17.16
2023-05-22T03:38:59.143Z,17.14
2023-05-22T03:40:03.570Z,17.16
2023-05-22T03:41:08.198Z,17.17
2023-05-22T03:42:13.514Z,17.18
2023-05-22T03:43:18.017Z,17.19
2023-05-22T03:44:22.337Z,17.21
2023-05-22T03:45:28.493Z,17.21
2023-05-22T03:46:33.440Z,17.21
2023-05-22T03:47:38.113Z,17.23
2023-05-22T03:48:43.823Z,17.26
2023-05-22T03:49:48.354Z,17.26
2023-05-22T03:50:52.232Z,17.26
2023-05-22T03:51:57.768Z,17.25
2023-05-22T03:53:01.795Z,17.23
2023-05-22T03:54:07.193Z,17.27
2023-05-22T03:55:11.197Z,17.30
2023-05-22T03:56:16.651Z,17.32
2023-05-22T03:57:20.891Z,17.32
2023-05-22T03:58:26.968Z,17.32
2023-05-22T03:59:30.288Z,17.32
2023-05-22T04:00:37.031Z,17.33
2023-05-22T04:01:42.493Z,17.33
2023-05-22T04:02:48.321Z,17.33
2023-05-22T04:03:55.036Z,17.33
2023-05-22T04:04:58.325Z,17.33
2023-05-22T04:06:03.480Z,17.33
2023-05-22T04:07:08.663Z,17.31
2023-05-22T04:08:12.604Z,17.33
2023-05-22T04:09:17.230Z,17.33
2023-05-22T04:10:23.608Z,17.33
2023-05-22T04:11:30.709Z,17.33
2023-05-22T04:12:35.538Z,17.36
2023-05-22T04:13:39.378Z,17.39
2023-05-22T04:14:43.793Z,17.41
2023-05-22T04:15:47.444Z,17.41
2023-05-22T04:16:51.924Z,17.42
2023-05-22T04:17:55.481Z,17.46
2023-05-22T04:19:03.631Z,17.47
2023-05-22T04:20:09.690Z,17.50
2023-05-22T04:21:15.009Z,17.54
2023-05-22T04:22:19.218Z,17.60
2023-05-22T04:23:25.178Z,17.63
2023-05-22T04:24:29.386Z,17.68
2023-05-22T04:25:35.268Z,17.71
2023-05-22T04:26:42.570Z,17.73
2023-05-22T04:27:49.397Z,17.78
2023-05-22T04:28:54.334Z,17.83
2023-05-22T04:30:00.605Z,17.87
2023-05-22T04:31:07.203Z,17.91
2023-05-22T04:32:12.609Z,17.96
2023-05-22T04:33:18.599Z,18.00
2023-05-22T04:34:30.716Z,18.07
2023-05-22T04:35:34.921Z,18.11
2023-05-22T04:36:39.623Z,18.15
2023-05-22T04:37:46.601Z,18.21
2023-05-22T04:38:52.790Z,18.26
2023-05-22T04:39:58.565Z,18.31
2023-05-22T04:41:03.019Z,18.33
2023-05-22T04:42:07.310Z,18.40
2023-05-22T04:43:13.651Z,18.45
2023-05-22T04:44:17.587Z,18.49
2023-05-22T04:45:26.435Z,18.53
2023-05-22T04:46:31.334Z,18.56
2023-05-22T04:47:39.477Z,18.58
2023-05-22T04:48:44.743Z,18.60
2023-05-22T04:49:53.683Z,18.65
2023-05-22T04:50:58.437Z,18.67
2023-05-22T04:52:04.936Z,18.72
2023-05-22T04:53:09.882Z,18.73
2023-05-22T04:54:13.517Z,18.77
2023-05-22T04:55:20.049Z,18.83
2023-05-22T04:56:35.461Z,18.88
2023-05-22T04:57:41.850Z,18.90
2023-05-22T04:58:45.220Z,18.92
2023-05-22T04:59:50.110Z,18.95
2023-05-22T05:00:54.323Z,18.96
2023-05-22T05:01:59.323Z,18.96
2023-05-22T05:03:03.349Z,18.96
2023-05-22T05:04:08.561Z,18.99
2023-05-22T05:05:13.977Z,18.96
2023-05-22T05:06:21.701Z,18.95
2023-05-22T05:07:26.790Z,18.94
2023-05-22T05:08:31.518Z,18.92
2023-05-22T05:09:35.369Z,18.90
2023-05-22T05:10:41.751Z,18.88
2023-05-22T05:11:44.849Z,18.89
2023-05-22T05:12:50.246Z,18.88
2023-05-22T05:13:53.463Z,18.87
2023-05-22T05:14:58.173Z,18.89
2023-05-22T05:16:03.850Z,18.90
2023-05-22T05:17:08.493Z,18.91
2023-05-22T05:18:13.026Z,18.90
2023-05-22T05:19:18.315Z,18.90
2023-05-22T05:20:24.966Z,18.89
2023-05-22T05:21:31.878Z,18.89
2023-05-22T05:22:35.417Z,18.93
2023-05-22T05:23:40.486Z,19.12
2023-05-22T05:24:44.043Z,19.37
2023-05-22T05:25:50.034Z,19.47
2023-05-22T05:26:54.171Z,19.52
2023-05-22T05:28:01.253Z,19.62
2023-05-22T05:29:04.307Z,19.69
2023-05-22T05:30:11.834Z,19.84
2023-05-22T05:31:16.811Z,19.91
2023-05-22T05:32:21.681Z,19.94
2023-05-22T05:33:25.125Z,20.01
2023-05-22T05:34:31.205Z,20.18
2023-05-22T05:35:37.227Z,20.50
2023-05-22T05:36:42.136Z,20.84
2023-05-22T05:37:46.299Z,21.21
2023-05-22T05:38:51.428Z,21.64
2023-05-22T05:39:57.156Z,22.08
2023-05-22T05:41:03.464Z,22.55
2023-05-22T05:42:08.289Z,22.99
2023-05-22T05:43:14.494Z,23.41
2023-05-22T05:44:19.590Z,23.84
2023-05-22T05:45:25.420Z,24.22
2023-05-22T05:46:30.696Z,24.57
2023-05-22T05:47:35.293Z,24.89
2023-05-22T05:48:40.715Z,25.19
2023-05-22T05:49:45.165Z,25.48
2023-05-22T05:50:51.382Z,25.75
2023-05-22T05:51:55.924Z,26.01
2023-05-22T05:53:01.932Z,26.25
2023-05-22T05:54:07.750Z,26.47
2023-05-22T05:55:13.631Z,26.66
2023-05-22T05:56:18.763Z,26.85
2023-05-22T05:57:22.477Z,27.03
2023-05-22T05:58:26.492Z,27.22
2023-05-22T05:59:32.726Z,27.40
2023-05-22T06:00:37.036Z,27.63
2023-05-22T06:01:46.272Z,27.86
2023-05-22T06:02:51.161Z,28.13
2023-05-22T06:03:56.388Z,28.37
2023-05-22T06:05:00.536Z,28.58
2023-05-22T06:06:08.475Z,28.77
2023-05-22T06:07:13.335Z,28.96
2023-05-22T06:08:20.398Z,29.13
2023-05-22T06:09:24.921Z,29.33
2023-05-22T06:10:30.506Z,29.45
2023-05-22T06:11:35.521Z,29.61
2023-05-22T06:12:39.496Z,29.82
2023-05-22T06:13:43.732Z,30.04
2023-05-22T06:14:49.027Z,30.21
2023-05-22T06:15:53.165Z,30.37
2023-05-22T06:16:58.149Z,30.58
2023-05-22T06:18:03.998Z,30.77
2023-05-22T06:19:09.697Z,31.00
2023-05-22T06:20:16.906Z,31.19
2023-05-22T06:21:23.220Z,31.33
2023-05-22T06:22:29.270Z,31.46
2023-05-22T06:23:32.521Z,31.69
2023-05-22T06:24:37.792Z,31.82
2023-05-22T06:25:41.144Z,31.97
2023-05-22T06:26:45.753Z,32.16
2023-05-22T06:27:52.056Z,32.34
2023-05-22T06:28:58.031Z,32.45
2023-05-22T06:30:04.649Z,32.52
2023-05-22T06:31:11.475Z,32.63
2023-05-22T06:32:15.641Z,32.77
2023-05-22T06:33:22.037Z,32.91
2023-05-22T06:34:28.021Z,33.05
2023-05-22T06:35:33.065Z,33.15
2023-05-22T06:36:40.452Z,33.22
2023-05-22T06:37:47.227Z,33.29
2023-05-22T06:38:52.285Z,33.40
2023-05-22T06:39:56.548Z,33.53
2023-05-22T06:41:02.232Z,33.66
2023-05-22T06:42:08.035Z,33.79
2023-05-22T06:43:14.015Z,33.97
2023-05-22T06:44:18.534Z,34.13
2023-05-22T06:45:23.085Z,34.31
2023-05-22T06:46:28.477Z,34.48
2023-05-22T06:47:32.967Z,34.61
2023-05-22T06:48:37.282Z,34.67
2023-05-22T06:49:40.645Z,34.78
2023-05-22T06:50:45.446Z,34.93
2023-05-22T06:51:51.709Z,35.15
2023-05-22T06:52:55.349Z,35.40
2023-05-22T06:54:00.989Z,35.65
2023-05-22T06:55:05.965Z,35.83
2023-05-22T06:56:13.200Z,36.01
2023-05-22T06:57:18.417Z,36.20
2023-05-22T06:58:23.133Z,36.33
2023-05-22T06:59:29.281Z,36.26
2023-05-22T07:03:24.648Z,35.02
2023-05-22T07:04:29.590Z,35.08
2023-05-22T07:05:34.154Z,35.25
2023-05-22T07:06:41.239Z,35.44
2023-05-22T07:07:48.034Z,35.65
2023-05-22T07:08:52.991Z,35.79
2023-05-22T07:09:58.933Z,36.00
2023-05-22T07:11:07.035Z,36.16
2023-05-22T07:12:13.474Z,35.95
2023-05-22T07:13:17.799Z,35.59
2023-05-22T07:14:23.630Z,35.28
2023-05-22T07:15:28.541Z,35.19
2023-05-22T07:16:37.645Z,35.37
2023-05-22T07:17:46.185Z,35.61
2023-05-22T07:18:54.800Z,35.49
2023-05-22T07:20:00.764Z,35.05
2023-05-22T07:21:12.598Z,34.66
2023-05-22T07:22:17.639Z,34.29
2023-05-22T07:23:27.761Z,33.99
2023-05-22T07:24:32.044Z,33.89
2023-05-22T07:25:37.132Z,34.06
2023-05-22T07:26:47.196Z,34.38
2023-05-22T07:27:52.389Z,34.78
2023-05-22T07:28:56.320Z,35.16
2023-05-22T07:30:02.809Z,35.58
2023-05-22T07:31:08.197Z,36.02
2023-05-22T07:32:12.724Z,36.45
2023-05-22T07:33:17.930Z,36.86
2023-05-22T07:34:23.791Z,37.24
2023-05-22T07:35:30.559Z,37.56
2023-05-22T07:36:35.690Z,37.76
2023-05-22T07:37:41.993Z,37.93
2023-05-22T07:38:50.502Z,38.09
2023-05-22T07:39:56.773Z,38.24
2023-05-22T07:41:01.163Z,38.32
2023-05-22T07:42:06.535Z,38.31
2023-05-22T07:43:12.254Z,38.43
2023-05-22T07:44:17.657Z,38.61
2023-05-22T07:45:22.827Z,38.77
2023-05-22T07:46:30.921Z,38.90
2023-05-22T07:47:35.673Z,39.00
2023-05-22T07:48:42.447Z,39.09
2023-05-22T07:49:47.029Z,39.02
2023-05-22T07:50:52.046Z,39.00
2023-05-22T07:51:57.492Z,39.07
2023-05-22T07:53:02.272Z,39.14
2023-05-22T07:54:08.968Z,39.18
2023-05-22T07:55:14.310Z,39.33
2023-05-22T07:56:19.316Z,39.51
2023-05-22T07:57:25.096Z,39.71
2023-05-22T07:58:28.905Z,39.85
2023-05-22T07:59:34.209Z,39.96
2023-05-22T08:00:38.771Z,40.15
2023-05-22T08:01:43.869Z,40.36
2023-05-22T08:02:49.598Z,40.41
2023-05-22T08:03:55.034Z,40.45
2023-05-22T08:05:02.280Z,40.50
2023-05-22T08:06:07.116Z,40.60
2023-05-22T08:07:12.194Z,40.47
2023-05-22T08:08:17.324Z,40.39
2023-05-22T08:09:24.103Z,40.47
2023-05-22T08:10:46.505Z,40.53
2023-05-22T08:11:51.843Z,40.68
2023-05-22T08:12:59.127Z,40.83
2023-05-22T08:14:04.260Z,40.90
2023-05-22T08:15:09.679Z,40.87
2023-05-22T08:16:17.636Z,40.81
2023-05-22T08:17:23.901Z,40.74
2023-05-22T08:18:30.022Z,40.71
2023-05-22T08:19:36.975Z,40.75
2023-05-22T08:20:42.988Z,40.74
2023-05-22T08:21:46.889Z,40.66
2023-05-22T08:22:54.034Z,40.48
2023-05-22T08:23:57.424Z,40.44
2023-05-22T08:25:03.449Z,40.58
2023-05-22T08:26:10.009Z,40.80
2023-05-22T08:27:14.958Z,40.99
2023-05-22T08:28:19.541Z,41.14
2023-05-22T08:29:24.046Z,41.20
2023-05-22T08:30:34.707Z,41.23
2023-05-22T08:31:42.061Z,41.19
2023-05-22T08:32:46.053Z,41.06
2023-05-22T08:33:50.275Z,40.98
2023-05-22T08:34:56.297Z,40.93
2023-05-22T08:36:04.135Z,40.99
2023-05-22T08:37:09.758Z,41.10
2023-05-22T08:38:14.706Z,41.18
2023-05-22T08:39:20.726Z,41.27
2023-05-22T08:40:39.457Z,41.36
2023-05-22T08:41:44.574Z,41.38
2023-05-22T08:42:51.718Z,41.39
2023-05-22T08:43:59.279Z,41.46
2023-05-22T08:45:04.188Z,41.55
2023-05-22T08:46:10.057Z,41.65
2023-05-22T08:47:16.282Z,41.71
2023-05-22T08:48:22.805Z,41.86
2023-05-22T08:49:28.973Z,42.01
2023-05-22T08:50:54.770Z,42.09
2023-05-22T08:52:09.041Z,42.20
2023-05-22T08:53:14.485Z,42.38
2023-05-22T08:54:24.366Z,42.45
2023-05-22T08:55:34.035Z,42.40
2023-05-22T08:56:52.969Z,42.33
2023-05-22T08:58:02.470Z,42.29
2023-05-22T08:59:09.289Z,42.29
2023-05-22T09:00:15.832Z,42.28
2023-05-22T09:01:23.290Z,42.32
2023-05-22T09:02:30.750Z,42.34
2023-05-22T09:03:40.861Z,42.28
2023-05-22T09:04:47.964Z,42.13
2023-05-22T09:05:53.946Z,42.02
2023-05-22T09:06:58.257Z,41.99
2023-05-22T09:08:19.003Z,42.01
2023-05-22T09:09:24.480Z,42.03
2023-05-22T09:10:30.477Z,42.01
2023-05-22T09:11:36.207Z,41.93
2023-05-22T09:13:03.017Z,41.64
2023-05-22T09:14:11.218Z,41.18
2023-05-22T09:15:20.971Z,40.95
2023-05-22T09:16:27.607Z,40.93
2023-05-22T09:17:30.918Z,40.95
2023-05-22T09:18:38.641Z,40.99
2023-05-22T09:19:47.290Z,40.98
2023-05-22T09:20:54.926Z,40.89
2023-05-22T09:22:05.945Z,40.79
2023-05-22T09:23:16.019Z,40.67
2023-05-22T09:24:21.739Z,40.60
2023-05-22T09:25:26.937Z,40.47
2023-05-22T09:26:34.079Z,40.22
2023-05-22T09:27:42.394Z,40.01
2023-05-22T09:28:50.207Z,39.82
2023-05-22T09:29:59.620Z,39.63
2023-05-22T09:31:07.231Z,39.47
2023-05-22T09:32:18.818Z,39.16
2023-05-22T09:33:24.603Z,38.95
2023-05-22T09:34:33.508Z,38.84
2023-05-22T09:35:42.911Z,38.77
2023-05-22T09:36:49.862Z,38.70
2023-05-22T09:37:58.638Z,38.50
2023-05-22T09:39:04.844Z,38.28
2023-05-22T09:40:14.938Z,38.16
2023-05-22T09:41:23.083Z,38.03
2023-05-22T09:42:32.488Z,37.97
2023-05-22T09:43:37.698Z,37.89
2023-05-22T09:44:44.636Z,37.74
2023-05-22T09:45:50.573Z,37.60
2023-05-22T09:46:56.487Z,37.42
2023-05-22T09:48:27.559Z,37.23
2023-05-22T09:49:45.609Z,36.95
2023-05-22T09:51:00.675Z,36.77
2023-05-22T09:52:21.288Z,36.66
2023-05-22T09:53:46.671Z,36.16
2023-05-22T09:54:55.705Z,35.72
2023-05-22T09:56:03.099Z,35.34
2023-05-22T09:57:12.375Z,35.19
2023-05-22T09:58:22.344Z,35.06
2023-05-22T09:59:32.488Z,35.02
2023-05-22T10:00:38.741Z,34.99
2023-05-22T10:01:46.550Z,34.98
2023-05-22T10:02:55.548Z,34.90
2023-05-22T10:04:01.176Z,34.84
2023-05-22T10:05:07.530Z,34.79
2023-05-22T10:06:14.565Z,34.69
2023-05-22T10:07:22.943Z,34.54
2023-05-22T10:08:30.060Z,34.43
2023-05-22T10:09:41.315Z,34.38
2023-05-22T10:10:53.340Z,34.36
2023-05-22T10:12:06.122Z,34.34
2023-05-22T10:13:13.930Z,34.27
2023-05-22T10:14:25.810Z,34.08
2023-05-22T10:15:34.005Z,33.87
2023-05-22T10:16:39.750Z,33.75
2023-05-22T10:17:47.361Z,33.70
2023-05-22T10:18:53.439Z,33.67
2023-05-22T10:19:59.310Z,33.59
2023-05-22T10:21:09.562Z,33.53
2023-05-22T10:22:21.469Z,33.49
2023-05-22T10:23:29.952Z,33.47
2023-05-22T10:24:36.775Z,33.39
2023-05-22T10:25:42.076Z,33.33
2023-05-22T10:26:47.383Z,33.25
2023-05-22T10:27:56.844Z,33.20
2023-05-22T10:29:09.977Z,33.19
2023-05-22T10:30:26.324Z,33.21
2023-05-22T10:31:46.269Z,33.24
2023-05-22T10:32:58.799Z,33.31
2023-05-22T10:34:10.308Z,33.24
2023-05-22T10:35:23.031Z,33.08
2023-05-22T10:36:47.607Z,33.00
2023-05-22T10:38:00.554Z,32.97
2023-05-22T10:39:22.386Z,32.87
2023-05-22T10:40:32.750Z,32.72
2023-05-22T10:41:37.542Z,32.68
2023-05-22T10:42:43.794Z,32.71
2023-05-22T10:43:52.905Z,32.80
2023-05-22T10:44:58.161Z,32.89
2023-05-22T10:46:10.551Z,32.97
2023-05-22T10:47:16.464Z,33.01
2023-05-22T10:48:25.456Z,33.06
2023-05-22T10:49:32.056Z,33.12
2023-05-22T10:50:37.267Z,33.19
2023-05-22T10:51:41.508Z,33.28
2023-05-22T10:52:46.629Z,33.33
2023-05-22T10:53:55.260Z,33.31
2023-05-22T10:55:01.612Z,33.28
2023-05-22T10:56:14.789Z,33.25
2023-05-22T10:57:19.693Z,33.23
2023-05-22T10:58:29.037Z,33.23
2023-05-22T10:59:36.424Z,33.21
2023-05-22T11:00:41.813Z,33.23
2023-05-22T11:01:49.813Z,33.20
2023-05-22T11:03:17.217Z,33.13
2023-05-22T11:04:27.881Z,33.02
2023-05-22T11:05:35.552Z,32.90
2023-05-22T11:06:45.265Z,32.85
2023-05-22T11:07:51.089Z,32.84
2023-05-22T11:08:59.792Z,32.89
2023-05-22T11:10:08.876Z,32.94
2023-05-22T11:11:15.676Z,33.01
2023-05-22T11:12:27.378Z,33.07
2023-05-22T11:13:33.835Z,33.09
2023-05-22T11:14:42.105Z,33.14
2023-05-22T11:15:49.157Z,33.15
2023-05-22T11:17:05.292Z,33.10
2023-05-22T11:18:12.241Z,33.04
2023-05-22T11:19:23.733Z,32.99
2023-05-22T11:20:31.559Z,32.93
2023-05-22T11:21:38.217Z,32.90
2023-05-22T11:22:45.900Z,32.84
2023-05-22T11:23:50.809Z,32.76
2023-05-22T11:24:56.661Z,32.65
2023-05-22T11:26:20.555Z,32.48
2023-05-22T11:27:25.793Z,32.38
2023-05-22T11:28:33.073Z,32.27
2023-05-22T11:29:37.684Z,32.17
2023-05-22T11:30:43.233Z,32.08
2023-05-22T11:31:50.039Z,31.94
2023-05-22T11:32:57.231Z,31.79
2023-05-22T11:34:05.181Z,31.65
2023-05-22T11:35:10.746Z,31.50
2023-05-22T11:36:15.205Z,31.34
2023-05-22T11:37:21.762Z,31.18
2023-05-22T11:38:30.139Z,31.03
2023-05-22T11:39:34.272Z,30.94
2023-05-22T11:40:41.387Z,30.85
2023-05-22T11:41:45.779Z,30.78
2023-05-22T11:42:51.935Z,30.71
2023-05-22T11:43:57.435Z,30.60
2023-05-22T11:45:03.137Z,30.50
2023-05-22T11:46:08.910Z,30.37
2023-05-22T11:47:13.717Z,30.26
2023-05-22T11:48:22.590Z,30.13
2023-05-22T11:49:30.417Z,30.01
2023-05-22T11:50:42.146Z,29.88
2023-05-22T11:51:50.988Z,29.76
2023-05-22T11:52:59.947Z,29.69
2023-05-22T11:54:05.639Z,29.67
2023-05-22T11:55:11.231Z,29.69
2023-05-22T11:56:15.582Z,29.69
2023-05-22T11:57:22.398Z,29.68
2023-05-22T11:58:31.403Z,29.61
2023-05-22T11:59:37.398Z,29.51
2023-05-22T12:00:41.556Z,29.43
2023-05-22T12:01:48.042Z,29.33
2023-05-22T12:02:54.433Z,29.24
2023-05-22T12:04:02.543Z,29.13
2023-05-22T12:05:10.724Z,29.06
2023-05-22T12:06:17.830Z,29.00
2023-05-22T12:07:24.546Z,29.01
2023-05-22T12:08:29.734Z,28.99
2023-05-22T12:09:37.193Z,29.03
2023-05-22T12:10:50.175Z,29.01
2023-05-22T12:11:58.412Z,28.97
2023-05-22T12:13:03.340Z,28.92
2023-05-22T12:14:07.604Z,28.91
2023-05-22T12:15:12.987Z,28.87
2023-05-22T12:16:22.434Z,28.83
2023-05-22T12:17:26.969Z,28.84
2023-05-22T12:18:37.232Z,28.84
2023-05-22T12:19:43.642Z,28.86
2023-05-22T12:20:53.672Z,28.87
2023-05-22T12:21:59.315Z,28.88
2023-05-22T12:23:04.131Z,28.92
2023-05-22T12:24:10.541Z,28.94
2023-05-22T12:25:18.317Z,28.95
2023-05-22T12:26:23.397Z,28.98
2023-05-22T12:27:34.167Z,29.00
2023-05-22T12:28:41.673Z,29.00
2023-05-22T12:29:46.461Z,29.03
2023-05-22T12:30:54.963Z,29.06
2023-05-22T12:32:04.910Z,29.10
2023-05-22T12:33:14.935Z,29.14
2023-05-22T12:34:24.300Z,29.19
2023-05-22T12:35:31.711Z,29.22
2023-05-22T12:36:38.561Z,29.25
2023-05-22T12:37:48.209Z,29.27
2023-05-22T12:38:58.019Z,29.28
2023-05-22T12:40:06.065Z,29.28
2023-05-22T12:41:11.605Z,29.31
2023-05-22T12:42:16.285Z,29.32
2023-05-22T12:43:24.315Z,29.29
2023-05-22T12:44:29.653Z,29.25
2023-05-22T12:45:34.928Z,29.20
2023-05-22T12:46:43.646Z,29.15
2023-05-22T12:47:46.953Z,29.06
2023-05-22T12:48:51.517Z,29.02
2023-05-22T12:49:55.986Z,28.95
2023-05-22T12:51:03.091Z,28.88
2023-05-22T12:52:09.245Z,28.81
2023-05-22T12:53:14.509Z,28.74
2023-05-22T12:54:19.053Z,28.67
2023-05-22T12:55:24.096Z,28.62
2023-05-22T12:56:29.365Z,28.59
2023-05-22T12:57:33.784Z,28.57
2023-05-22T12:58:38.636Z,28.55
2023-05-22T12:59:43.211Z,28.52
2023-05-22T13:00:47.823Z,28.50
2023-05-22T13:01:51.489Z,28.49
2023-05-22T13:02:57.272Z,28.49
2023-05-22T13:04:03.441Z,28.48
2023-05-22T13:05:10.218Z,28.49
2023-05-22T13:06:18.517Z,28.50
2023-05-22T13:07:24.259Z,28.50
2023-05-22T13:08:31.632Z,28.55
2023-05-22T13:09:37.062Z,28.56
2023-05-22T13:10:44.873Z,28.60
2023-05-22T13:11:50.941Z,28.62
2023-05-22T13:12:55.753Z,28.65
2023-05-22T13:13:59.898Z,28.69
2023-05-22T13:15:06.312Z,28.73
2023-05-22T13:16:13.213Z,28.79
2023-05-22T13:17:16.627Z,28.82
2023-05-22T13:18:23.161Z,28.89
2023-05-22T13:19:27.405Z,28.93
2023-05-22T13:20:33.632Z,28.96
2023-05-22T13:21:39.079Z,29.02
2023-05-22T13:22:43.510Z,29.07
2023-05-22T13:23:47.833Z,29.10
2023-05-22T13:24:53.230Z,29.14
2023-05-22T13:25:58.745Z,29.17
2023-05-22T13:27:03.005Z,29.19
2023-05-22T13:28:09.388Z,29.21
2023-05-22T13:29:14.438Z,29.25
2023-05-22T13:30:20.867Z,29.29
2023-05-22T13:31:25.003Z,29.33
2023-05-22T13:32:30.127Z,29.36
2023-05-22T13:33:35.371Z,29.41
2023-05-22T13:34:45.360Z,29.45
2023-05-22T13:35:51.218Z,29.48
2023-05-22T13:36:57.724Z,29.50
2023-05-22T13:38:03.818Z,29.50
2023-05-22T13:39:10.265Z,29.50
2023-05-22T13:40:20.754Z,29.50
2023-05-22T13:41:27.200Z,29.48
2023-05-22T13:42:35.426Z,29.46
2023-05-22T13:43:40.608Z,29.46
2023-05-22T13:44:45.299Z,29.49
2023-05-22T13:45:49.373Z,29.52
2023-05-22T13:46:54.589Z,29.56
2023-05-22T13:48:00.178Z,29.58
2023-05-22T13:49:06.167Z,29.63
2023-05-22T13:50:12.010Z,29.67
2023-05-22T13:51:18.072Z,29.67
2023-05-22T13:52:24.169Z,29.69
2023-05-22T13:53:28.676Z,29.68
2023-05-22T13:54:35.503Z,29.65
2023-05-22T13:55:40.053Z,29.64
2023-05-22T13:56:45.627Z,29.63
2023-05-22T13:57:51.135Z,29.61
2023-05-22T13:58:56.179Z,29.60
2023-05-22T14:00:02.802Z,29.58
2023-05-22T14:01:08.766Z,29.55
2023-05-22T14:02:12.699Z,29.53
2023-05-22T14:03:19.145Z,29.51
2023-05-22T14:04:23.040Z,29.48
2023-05-22T14:05:28.390Z,29.48
2023-05-22T14:06:32.476Z,29.46
2023-05-22T14:07:39.829Z,29.42
2023-05-22T14:08:43.846Z,29.41
2023-05-22T14:09:49.081Z,29.40
2023-05-22T14:10:54.183Z,29.39
2023-05-22T14:12:03.703Z,29.38
2023-05-22T14:13:09.482Z,29.37
2023-05-22T14:14:15.149Z,29.36
2023-05-22T14:15:20.080Z,29.33
2023-05-22T14:16:27.770Z,29.30
2023-05-22T14:17:33.820Z,29.25
2023-05-22T14:18:38.474Z,29.24
2023-05-22T14:19:43.445Z,29.22
2023-05-22T14:20:47.472Z,29.22
2023-05-22T14:21:55.833Z,29.21
2023-05-22T14:23:03.754Z,29.20
2023-05-22T14:24:08.962Z,29.21